sensor_id;sensor_type;location;lat;lon;timestamp;P1;durP1;ratioP1;P2;durP2;ratioP2
36233;SDS011;43467;50.890;5.982;2023-12-20T00:01:00;17.15;;;13.48;;
36233;SDS011;43467;50.890;5.982;2023-12-20T00:03:26;18.65;;;13.35;;
36233;SDS011;43467;50.890;5.982;2023-12-20T00:05:52;19.10;;;13.15;;
36233;SDS011;43467;50.890;5.982;2023-12-20T00:08:17;21.02;;;14.88;;
36233;SDS011;43467;50.890;5.982;2023-12-20T00:10:43;20.80;;;13.52;;
36233;SDS011;43467;50.890;5.982;2023-12-20T00:13:09;20.20;;;13.73;;
36233;SDS011;43467;50.890;5.982;2023-12-20T00:18:06;20.92;;;13.50;;
36233;SDS011;43467;50.890;5.982;2023-12-20T00:20:32;18.73;;;13.35;;
36233;SDS011;43467;50.890;5.982;2023-12-20T00:22:57;21.73;;;12.95;;
36233;SDS011;43467;50.890;5.982;2023-12-20T00:25:24;23.55;;;13.18;;
36233;SDS011;43467;50.890;5.982;2023-12-20T00:27:50;19.67;;;13.60;;
36233;SDS011;43467;50.890;5.982;2023-12-20T00:30:15;20.67;;;13.20;;
36233;SDS011;43467;50.890;5.982;2023-12-20T00:32:41;21.75;;;13.18;;
36233;SDS011;43467;50.890;5.982;2023-12-20T00:35:11;21.73;;;11.57;;
36233;SDS011;43467;50.890;5.982;2023-12-20T00:37:38;18.60;;;12.35;;
36233;SDS011;43467;50.890;5.982;2023-12-20T00:40:03;18.73;;;10.05;;
36233;SDS011;43467;50.890;5.982;2023-12-20T00:42:29;16.05;;;7.90;;
36233;SDS011;43467;50.890;5.982;2023-12-20T00:44:54;17.63;;;7.47;;
36233;SDS011;43467;50.890;5.982;2023-12-20T00:47:20;11.15;;;4.13;;
36233;SDS011;43467;50.890;5.982;2023-12-20T00:49:46;17.67;;;3.80;;
36233;SDS011;43467;50.890;5.982;2023-12-20T00:52:11;13.90;;;3.53;;
36233;SDS011;43467;50.890;5.982;2023-12-20T00:54:36;11.52;;;3.15;;
36233;SDS011;43467;50.890;5.982;2023-12-20T00:57:02;15.77;;;3.42;;
36233;SDS011;43467;50.890;5.982;2023-12-20T00:59:27;12.32;;;3.92;;
36233;SDS011;43467;50.890;5.982;2023-12-20T01:01:53;10.63;;;3.80;;
36233;SDS011;43467;50.890;5.982;2023-12-20T01:04:19;17.35;;;3.05;;
36233;SDS011;43467;50.890;5.982;2023-12-20T01:06:44;8.25;;;2.90;;
36233;SDS011;43467;50.890;5.982;2023-12-20T01:09:10;13.90;;;3.30;;
36233;SDS011;43467;50.890;5.982;2023-12-20T01:11:35;11.68;;;3.47;;
36233;SDS011;43467;50.890;5.982;2023-12-20T01:14:01;14.32;;;3.33;;
36233;SDS011;43467;50.890;5.982;2023-12-20T01:16:26;12.88;;;4.13;;
36233;SDS011;43467;50.890;5.982;2023-12-20T01:18:51;12.68;;;3.10;;
36233;SDS011;43467;50.890;5.982;2023-12-20T01:21:17;18.23;;;3.00;;
36233;SDS011;43467;50.890;5.982;2023-12-20T01:23:42;14.73;;;3.22;;
36233;SDS011;43467;50.890;5.982;2023-12-20T01:26:08;12.05;;;2.97;;
36233;SDS011;43467;50.890;5.982;2023-12-20T01:28:34;11.20;;;3.17;;
36233;SDS011;43467;50.890;5.982;2023-12-20T01:30:59;10.02;;;3.22;;
36233;SDS011;43467;50.890;5.982;2023-12-20T01:33:24;9.65;;;3.35;;
36233;SDS011;43467;50.890;5.982;2023-12-20T01:35:50;10.90;;;3.47;;
36233;SDS011;43467;50.890;5.982;2023-12-20T01:38:15;20.80;;;4.80;;
36233;SDS011;43467;50.890;5.982;2023-12-20T01:40:43;11.02;;;3.63;;
36233;SDS011;43467;50.890;5.982;2023-12-20T01:43:09;20.05;;;4.13;;
36233;SDS011;43467;50.890;5.982;2023-12-20T01:45:36;20.80;;;4.07;;
36233;SDS011;43467;50.890;5.982;2023-12-20T01:48:02;13.68;;;3.85;;
36233;SDS011;43467;50.890;5.982;2023-12-20T01:50:30;16.23;;;3.78;;
36233;SDS011;43467;50.890;5.982;2023-12-20T01:52:57;11.93;;;3.58;;
36233;SDS011;43467;50.890;5.982;2023-12-20T01:55:26;12.68;;;4.05;;
36233;SDS011;43467;50.890;5.982;2023-12-20T01:57:54;15.52;;;3.95;;
36233;SDS011;43467;50.890;5.982;2023-12-20T02:00:22;12.82;;;3.22;;
36233;SDS011;43467;50.890;5.982;2023-12-20T02:02:48;11.95;;;3.60;;
36233;SDS011;43467;50.890;5.982;2023-12-20T02:05:15;13.45;;;3.30;;
36233;SDS011;43467;50.890;5.982;2023-12-20T02:07:41;14.80;;;3.72;;
36233;SDS011;43467;50.890;5.982;2023-12-20T02:10:07;16.33;;;3.72;;
36233;SDS011;43467;50.890;5.982;2023-12-20T02:12:33;13.70;;;3.35;;
36233;SDS011;43467;50.890;5.982;2023-12-20T02:14:59;14.80;;;3.47;;
36233;SDS011;43467;50.890;5.982;2023-12-20T02:17:24;17.40;;;3.95;;
36233;SDS011;43467;50.890;5.982;2023-12-20T02:19:51;16.63;;;3.65;;
36233;SDS011;43467;50.890;5.982;2023-12-20T02:22:16;16.00;;;3.55;;
36233;SDS011;43467;50.890;5.982;2023-12-20T02:24:41;13.38;;;3.20;;
36233;SDS011;43467;50.890;5.982;2023-12-20T02:27:07;15.93;;;3.70;;
36233;SDS011;43467;50.890;5.982;2023-12-20T02:29:36;17.17;;;3.40;;
36233;SDS011;43467;50.890;5.982;2023-12-20T02:32:02;17.10;;;3.63;;
36233;SDS011;43467;50.890;5.982;2023-12-20T02:34:28;18.80;;;3.40;;
36233;SDS011;43467;50.890;5.982;2023-12-20T02:36:54;13.20;;;3.28;;
36233;SDS011;43467;50.890;5.982;2023-12-20T02:39:19;15.43;;;3.90;;
36233;SDS011;43467;50.890;5.982;2023-12-20T02:41:45;12.10;;;3.53;;
36233;SDS011;43467;50.890;5.982;2023-12-20T02:44:11;19.80;;;4.68;;
36233;SDS011;43467;50.890;5.982;2023-12-20T02:46:36;14.85;;;3.72;;
36233;SDS011;43467;50.890;5.982;2023-12-20T02:49:01;20.95;;;4.90;;
36233;SDS011;43467;50.890;5.982;2023-12-20T02:51:27;15.00;;;3.63;;
36233;SDS011;43467;50.890;5.982;2023-12-20T02:53:52;10.98;;;3.80;;
36233;SDS011;43467;50.890;5.982;2023-12-20T02:56:18;17.42;;;4.15;;
36233;SDS011;43467;50.890;5.982;2023-12-20T02:58:43;16.55;;;4.50;;
36233;SDS011;43467;50.890;5.982;2023-12-20T03:01:08;21.02;;;5.18;;
36233;SDS011;43467;50.890;5.982;2023-12-20T03:03:34;20.52;;;4.63;;
36233;SDS011;43467;50.890;5.982;2023-12-20T03:06:00;15.98;;;4.20;;
36233;SDS011;43467;50.890;5.982;2023-12-20T03:08:25;16.25;;;4.68;;
36233;SDS011;43467;50.890;5.982;2023-12-20T03:10:50;16.10;;;3.83;;
36233;SDS011;43467;50.890;5.982;2023-12-20T03:13:16;15.27;;;4.30;;
36233;SDS011;43467;50.890;5.982;2023-12-20T03:15:41;12.38;;;4.63;;
36233;SDS011;43467;50.890;5.982;2023-12-20T03:18:07;16.05;;;5.38;;
36233;SDS011;43467;50.890;5.982;2023-12-20T03:20:32;18.90;;;4.65;;
36233;SDS011;43467;50.890;5.982;2023-12-20T03:22:59;21.42;;;4.70;;
36233;SDS011;43467;50.890;5.982;2023-12-20T03:25:25;15.15;;;4.90;;
36233;SDS011;43467;50.890;5.982;2023-12-20T03:27:51;15.65;;;4.90;;
36233;SDS011;43467;50.890;5.982;2023-12-20T03:30:16;14.60;;;4.72;;
36233;SDS011;43467;50.890;5.982;2023-12-20T03:32:41;12.35;;;4.05;;
36233;SDS011;43467;50.890;5.982;2023-12-20T03:35:07;19.83;;;4.80;;
36233;SDS011;43467;50.890;5.982;2023-12-20T03:37:32;11.73;;;4.63;;
36233;SDS011;43467;50.890;5.982;2023-12-20T03:39:58;15.80;;;4.63;;
36233;SDS011;43467;50.890;5.982;2023-12-20T03:42:23;16.38;;;4.45;;
36233;SDS011;43467;50.890;5.982;2023-12-20T03:44:49;21.00;;;4.85;;
36233;SDS011;43467;50.890;5.982;2023-12-20T03:47:14;13.50;;;4.43;;
36233;SDS011;43467;50.890;5.982;2023-12-20T03:49:39;22.15;;;5.68;;
36233;SDS011;43467;50.890;5.982;2023-12-20T03:52:05;17.10;;;4.57;;
36233;SDS011;43467;50.890;5.982;2023-12-20T03:54:30;20.55;;;5.43;;
36233;SDS011;43467;50.890;5.982;2023-12-20T03:56:55;14.82;;;3.97;;
36233;SDS011;43467;50.890;5.982;2023-12-20T03:59:21;18.27;;;4.65;;
36233;SDS011;43467;50.890;5.982;2023-12-20T04:01:46;14.88;;;4.88;;
36233;SDS011;43467;50.890;5.982;2023-12-20T04:04:12;11.85;;;3.78;;
36233;SDS011;43467;50.890;5.982;2023-12-20T04:06:38;22.35;;;4.80;;
36233;SDS011;43467;50.890;5.982;2023-12-20T04:09:03;19.27;;;5.72;;
36233;SDS011;43467;50.890;5.982;2023-12-20T04:11:29;15.68;;;4.00;;
36233;SDS011;43467;50.890;5.982;2023-12-20T04:13:54;18.20;;;5.47;;
36233;SDS011;43467;50.890;5.982;2023-12-20T04:16:19;14.90;;;3.67;;
36233;SDS011;43467;50.890;5.982;2023-12-20T04:18:45;23.40;;;5.20;;
36233;SDS011;43467;50.890;5.982;2023-12-20T04:21:11;18.45;;;4.63;;
36233;SDS011;43467;50.890;5.982;2023-12-20T04:23:36;13.80;;;4.43;;
36233;SDS011;43467;50.890;5.982;2023-12-20T04:26:02;18.27;;;4.30;;
36233;SDS011;43467;50.890;5.982;2023-12-20T04:28:27;14.30;;;3.55;;
36233;SDS011;43467;50.890;5.982;2023-12-20T04:30:55;14.98;;;5.03;;
36233;SDS011;43467;50.890;5.982;2023-12-20T04:33:20;17.60;;;4.03;;
36233;SDS011;43467;50.890;5.982;2023-12-20T04:35:46;18.35;;;4.15;;
36233;SDS011;43467;50.890;5.982;2023-12-20T04:38:11;20.02;;;4.30;;
36233;SDS011;43467;50.890;5.982;2023-12-20T04:40:37;18.85;;;4.63;;
36233;SDS011;43467;50.890;5.982;2023-12-20T04:43:02;14.57;;;4.90;;
36233;SDS011;43467;50.890;5.982;2023-12-20T04:45:28;18.42;;;4.20;;
36233;SDS011;43467;50.890;5.982;2023-12-20T04:47:53;20.73;;;4.85;;
36233;SDS011;43467;50.890;5.982;2023-12-20T04:50:19;16.60;;;4.65;;
36233;SDS011;43467;50.890;5.982;2023-12-20T04:52:44;17.13;;;4.18;;
36233;SDS011;43467;50.890;5.982;2023-12-20T04:55:10;20.48;;;4.72;;
36233;SDS011;43467;50.890;5.982;2023-12-20T04:57:36;16.35;;;4.20;;
36233;SDS011;43467;50.890;5.982;2023-12-20T05:00:01;21.42;;;4.47;;
36233;SDS011;43467;50.890;5.982;2023-12-20T05:02:27;14.60;;;4.15;;
36233;SDS011;43467;50.890;5.982;2023-12-20T05:04:52;14.70;;;5.15;;
36233;SDS011;43467;50.890;5.982;2023-12-20T05:07:18;16.35;;;4.75;;
36233;SDS011;43467;50.890;5.982;2023-12-20T05:09:43;17.88;;;5.13;;
36233;SDS011;43467;50.890;5.982;2023-12-20T05:12:08;16.17;;;4.40;;
36233;SDS011;43467;50.890;5.982;2023-12-20T05:14:34;12.70;;;4.05;;
36233;SDS011;43467;50.890;5.982;2023-12-20T05:16:59;19.92;;;5.15;;
36233;SDS011;43467;50.890;5.982;2023-12-20T05:19:24;22.08;;;4.65;;
36233;SDS011;43467;50.890;5.982;2023-12-20T05:21:51;31.80;;;6.47;;
36233;SDS011;43467;50.890;5.982;2023-12-20T05:24:16;17.30;;;4.72;;
36233;SDS011;43467;50.890;5.982;2023-12-20T05:26:42;18.40;;;4.75;;
36233;SDS011;43467;50.890;5.982;2023-12-20T05:29:07;15.68;;;4.43;;
36233;SDS011;43467;50.890;5.982;2023-12-20T05:31:33;18.02;;;5.10;;
36233;SDS011;43467;50.890;5.982;2023-12-20T05:33:59;21.52;;;5.25;;
36233;SDS011;43467;50.890;5.982;2023-12-20T05:36:24;15.77;;;4.45;;
36233;SDS011;43467;50.890;5.982;2023-12-20T05:38:49;20.75;;;5.28;;
36233;SDS011;43467;50.890;5.982;2023-12-20T05:41:15;20.77;;;4.97;;
36233;SDS011;43467;50.890;5.982;2023-12-20T05:43:41;26.83;;;5.05;;
36233;SDS011;43467;50.890;5.982;2023-12-20T05:46:06;21.33;;;5.25;;
36233;SDS011;43467;50.890;5.982;2023-12-20T05:48:31;15.10;;;4.80;;
36233;SDS011;43467;50.890;5.982;2023-12-20T05:50:57;23.08;;;5.28;;
36233;SDS011;43467;50.890;5.982;2023-12-20T05:53:22;22.90;;;6.50;;
36233;SDS011;43467;50.890;5.982;2023-12-20T05:55:48;20.75;;;5.18;;
36233;SDS011;43467;50.890;5.982;2023-12-20T05:58:13;18.65;;;4.78;;
36233;SDS011;43467;50.890;5.982;2023-12-20T06:00:39;22.90;;;5.40;;
36233;SDS011;43467;50.890;5.982;2023-12-20T06:03:04;20.85;;;5.53;;
36233;SDS011;43467;50.890;5.982;2023-12-20T06:05:30;21.38;;;5.20;;
36233;SDS011;43467;50.890;5.982;2023-12-20T06:07:56;19.65;;;6.72;;
36233;SDS011;43467;50.890;5.982;2023-12-20T06:10:26;18.48;;;5.43;;
36233;SDS011;43467;50.890;5.982;2023-12-20T06:12:52;18.23;;;5.45;;
36233;SDS011;43467;50.890;5.982;2023-12-20T06:15:17;25.90;;;6.20;;
36233;SDS011;43467;50.890;5.982;2023-12-20T06:17:42;22.80;;;6.32;;
36233;SDS011;43467;50.890;5.982;2023-12-20T06:20:08;23.15;;;5.82;;
36233;SDS011;43467;50.890;5.982;2023-12-20T06:22:34;23.13;;;5.57;;
36233;SDS011;43467;50.890;5.982;2023-12-20T06:25:00;21.85;;;5.63;;
36233;SDS011;43467;50.890;5.982;2023-12-20T06:27:27;15.73;;;4.90;;
36233;SDS011;43467;50.890;5.982;2023-12-20T06:29:52;20.73;;;5.65;;
36233;SDS011;43467;50.890;5.982;2023-12-20T06:32:18;23.92;;;6.05;;
36233;SDS011;43467;50.890;5.982;2023-12-20T06:34:43;19.02;;;4.82;;
36233;SDS011;43467;50.890;5.982;2023-12-20T06:37:09;17.13;;;5.47;;
36233;SDS011;43467;50.890;5.982;2023-12-20T06:39:34;15.30;;;4.90;;
36233;SDS011;43467;50.890;5.982;2023-12-20T06:42:00;22.17;;;5.80;;
36233;SDS011;43467;50.890;5.982;2023-12-20T06:44:25;19.42;;;5.53;;
36233;SDS011;43467;50.890;5.982;2023-12-20T06:46:51;24.17;;;6.05;;
36233;SDS011;43467;50.890;5.982;2023-12-20T06:49:16;22.25;;;5.30;;
36233;SDS011;43467;50.890;5.982;2023-12-20T06:51:41;21.17;;;5.95;;
36233;SDS011;43467;50.890;5.982;2023-12-20T06:54:07;21.45;;;6.50;;
36233;SDS011;43467;50.890;5.982;2023-12-20T06:56:32;16.08;;;5.65;;
36233;SDS011;43467;50.890;5.982;2023-12-20T06:58:58;20.65;;;5.95;;
36233;SDS011;43467;50.890;5.982;2023-12-20T07:01:24;24.17;;;5.63;;
36233;SDS011;43467;50.890;5.982;2023-12-20T07:03:49;20.88;;;6.22;;
36233;SDS011;43467;50.890;5.982;2023-12-20T07:06:14;16.58;;;5.95;;
36233;SDS011;43467;50.890;5.982;2023-12-20T07:08:41;20.48;;;6.18;;
36233;SDS011;43467;50.890;5.982;2023-12-20T07:11:06;17.48;;;5.88;;
36233;SDS011;43467;50.890;5.982;2023-12-20T07:13:32;23.40;;;5.97;;
36233;SDS011;43467;50.890;5.982;2023-12-20T07:15:57;17.48;;;5.38;;
36233;SDS011;43467;50.890;5.982;2023-12-20T07:18:23;19.30;;;5.25;;
36233;SDS011;43467;50.890;5.982;2023-12-20T07:20:48;28.50;;;7.55;;
36233;SDS011;43467;50.890;5.982;2023-12-20T07:23:14;20.88;;;5.53;;
36233;SDS011;43467;50.890;5.982;2023-12-20T07:25:39;24.30;;;6.40;;
36233;SDS011;43467;50.890;5.982;2023-12-20T07:28:04;21.00;;;6.38;;
36233;SDS011;43467;50.890;5.982;2023-12-20T07:30:30;25.55;;;7.90;;
36233;SDS011;43467;50.890;5.982;2023-12-20T07:32:55;14.75;;;5.95;;
36233;SDS011;43467;50.890;5.982;2023-12-20T07:35:21;20.10;;;5.82;;
36233;SDS011;43467;50.890;5.982;2023-12-20T07:37:48;22.98;;;5.68;;
36233;SDS011;43467;50.890;5.982;2023-12-20T07:40:13;22.52;;;5.75;;
36233;SDS011;43467;50.890;5.982;2023-12-20T07:42:38;26.75;;;6.53;;
36233;SDS011;43467;50.890;5.982;2023-12-20T07:45:04;16.45;;;5.82;;
36233;SDS011;43467;50.890;5.982;2023-12-20T07:47:30;17.38;;;5.35;;
36233;SDS011;43467;50.890;5.982;2023-12-20T07:49:55;17.17;;;6.05;;
36233;SDS011;43467;50.890;5.982;2023-12-20T07:52:21;22.42;;;5.97;;
36233;SDS011;43467;50.890;5.982;2023-12-20T07:54:47;27.00;;;7.15;;
36233;SDS011;43467;50.890;5.982;2023-12-20T07:57:13;30.33;;;6.53;;
36233;SDS011;43467;50.890;5.982;2023-12-20T07:59:38;24.10;;;6.40;;
36233;SDS011;43467;50.890;5.982;2023-12-20T08:02:04;26.33;;;5.82;;
36233;SDS011;43467;50.890;5.982;2023-12-20T08:04:29;24.40;;;5.45;;
36233;SDS011;43467;50.890;5.982;2023-12-20T08:06:54;21.55;;;5.85;;
36233;SDS011;43467;50.890;5.982;2023-12-20T08:09:20;22.65;;;5.60;;
36233;SDS011;43467;50.890;5.982;2023-12-20T08:11:46;21.75;;;6.57;;
36233;SDS011;43467;50.890;5.982;2023-12-20T08:14:12;20.25;;;5.18;;
36233;SDS011;43467;50.890;5.982;2023-12-20T08:16:37;22.90;;;5.10;;
36233;SDS011;43467;50.890;5.982;2023-12-20T08:19:03;23.55;;;5.70;;
36233;SDS011;43467;50.890;5.982;2023-12-20T08:21:28;20.10;;;5.57;;
36233;SDS011;43467;50.890;5.982;2023-12-20T08:23:53;24.10;;;5.90;;
36233;SDS011;43467;50.890;5.982;2023-12-20T08:26:19;29.92;;;6.38;;
36233;SDS011;43467;50.890;5.982;2023-12-20T08:28:46;19.27;;;5.47;;
36233;SDS011;43467;50.890;5.982;2023-12-20T08:31:15;22.95;;;5.57;;
36233;SDS011;43467;50.890;5.982;2023-12-20T08:33:43;17.13;;;5.63;;
36233;SDS011;43467;50.890;5.982;2023-12-20T08:36:09;16.52;;;5.68;;
36233;SDS011;43467;50.890;5.982;2023-12-20T08:38:35;21.98;;;7.13;;
36233;SDS011;43467;50.890;5.982;2023-12-20T08:41:01;19.48;;;5.38;;
36233;SDS011;43467;50.890;5.982;2023-12-20T08:43:27;21.52;;;5.38;;
36233;SDS011;43467;50.890;5.982;2023-12-20T08:45:53;23.00;;;5.40;;
36233;SDS011;43467;50.890;5.982;2023-12-20T08:48:19;13.57;;;5.20;;
36233;SDS011;43467;50.890;5.982;2023-12-20T08:50:44;19.48;;;6.18;;
36233;SDS011;43467;50.890;5.982;2023-12-20T08:53:10;21.42;;;4.97;;
36233;SDS011;43467;50.890;5.982;2023-12-20T08:55:35;17.95;;;4.65;;
36233;SDS011;43467;50.890;5.982;2023-12-20T08:58:00;16.10;;;5.25;;
36233;SDS011;43467;50.890;5.982;2023-12-20T09:00:26;18.30;;;4.72;;
36233;SDS011;43467;50.890;5.982;2023-12-20T09:02:53;20.20;;;4.85;;
36233;SDS011;43467;50.890;5.982;2023-12-20T09:05:19;14.90;;;4.88;;
36233;SDS011;43467;50.890;5.982;2023-12-20T09:07:45;16.15;;;5.13;;
36233;SDS011;43467;50.890;5.982;2023-12-20T09:10:10;22.05;;;5.93;;
36233;SDS011;43467;50.890;5.982;2023-12-20T09:12:35;17.25;;;4.85;;
36233;SDS011;43467;50.890;5.982;2023-12-20T09:15:04;21.67;;;6.15;;
36233;SDS011;43467;50.890;5.982;2023-12-20T09:17:30;26.92;;;5.95;;
36233;SDS011;43467;50.890;5.982;2023-12-20T09:19:56;28.27;;;8.95;;
36233;SDS011;43467;50.890;5.982;2023-12-20T09:22:21;16.45;;;5.18;;
36233;SDS011;43467;50.890;5.982;2023-12-20T09:24:47;19.25;;;5.05;;
36233;SDS011;43467;50.890;5.982;2023-12-20T09:27:12;21.10;;;5.38;;
36233;SDS011;43467;50.890;5.982;2023-12-20T09:29:38;16.55;;;4.38;;
36233;SDS011;43467;50.890;5.982;2023-12-20T09:32:03;21.52;;;6.10;;
36233;SDS011;43467;50.890;5.982;2023-12-20T09:34:29;16.90;;;4.90;;
36233;SDS011;43467;50.890;5.982;2023-12-20T09:36:54;17.38;;;5.13;;
36233;SDS011;43467;50.890;5.982;2023-12-20T09:39:20;17.33;;;4.53;;
36233;SDS011;43467;50.890;5.982;2023-12-20T09:41:49;22.83;;;4.60;;
36233;SDS011;43467;50.890;5.982;2023-12-20T09:44:24;17.42;;;4.28;;
36233;SDS011;43467;50.890;5.982;2023-12-20T09:46:50;14.65;;;4.40;;
36233;SDS011;43467;50.890;5.982;2023-12-20T09:49:18;16.83;;;4.68;;
36233;SDS011;43467;50.890;5.982;2023-12-20T09:51:44;17.88;;;4.78;;
36233;SDS011;43467;50.890;5.982;2023-12-20T09:54:12;16.65;;;4.35;;
36233;SDS011;43467;50.890;5.982;2023-12-20T09:56:40;11.05;;;3.97;;
36233;SDS011;43467;50.890;5.982;2023-12-20T09:59:06;18.35;;;4.60;;
36233;SDS011;43467;50.890;5.982;2023-12-20T10:01:31;22.05;;;4.28;;
36233;SDS011;43467;50.890;5.982;2023-12-20T10:03:58;22.58;;;4.85;;
36233;SDS011;43467;50.890;5.982;2023-12-20T10:06:26;16.45;;;5.13;;
36233;SDS011;43467;50.890;5.982;2023-12-20T10:08:52;17.48;;;4.38;;
36233;SDS011;43467;50.890;5.982;2023-12-20T10:11:18;19.92;;;5.80;;
36233;SDS011;43467;50.890;5.982;2023-12-20T10:13:44;21.27;;;6.78;;
36233;SDS011;43467;50.890;5.982;2023-12-20T10:16:12;22.52;;;8.30;;
36233;SDS011;43467;50.890;5.982;2023-12-20T10:18:37;23.52;;;4.65;;
36233;SDS011;43467;50.890;5.982;2023-12-20T10:21:03;14.15;;;4.47;;
36233;SDS011;43467;50.890;5.982;2023-12-20T10:23:29;12.18;;;4.72;;
36233;SDS011;43467;50.890;5.982;2023-12-20T10:25:58;20.50;;;4.57;;
36233;SDS011;43467;50.890;5.982;2023-12-20T10:28:25;19.08;;;4.93;;
36233;SDS011;43467;50.890;5.982;2023-12-20T10:30:53;21.88;;;4.38;;
36233;SDS011;43467;50.890;5.982;2023-12-20T10:33:28;17.92;;;4.53;;
36233;SDS011;43467;50.890;5.982;2023-12-20T10:35:57;13.63;;;4.47;;
36233;SDS011;43467;50.890;5.982;2023-12-20T10:38:22;18.00;;;4.72;;
36233;SDS011;43467;50.890;5.982;2023-12-20T10:40:48;25.50;;;4.88;;
36233;SDS011;43467;50.890;5.982;2023-12-20T10:43:18;16.13;;;4.45;;
36233;SDS011;43467;50.890;5.982;2023-12-20T10:45:45;19.35;;;4.90;;
36233;SDS011;43467;50.890;5.982;2023-12-20T10:48:10;20.00;;;5.47;;
36233;SDS011;43467;50.890;5.982;2023-12-20T10:50:39;14.68;;;4.75;;
36233;SDS011;43467;50.890;5.982;2023-12-20T10:53:06;17.30;;;4.88;;
36233;SDS011;43467;50.890;5.982;2023-12-20T10:55:32;18.70;;;4.10;;
36233;SDS011;43467;50.890;5.982;2023-12-20T10:58:02;11.77;;;4.30;;
36233;SDS011;43467;50.890;5.982;2023-12-20T11:00:36;21.77;;;3.80;;
36233;SDS011;43467;50.890;5.982;2023-12-20T11:03:06;24.52;;;5.50;;
36233;SDS011;43467;50.890;5.982;2023-12-20T11:05:54;19.38;;;5.22;;
36233;SDS011;43467;50.890;5.982;2023-12-20T11:08:36;25.60;;;4.45;;
36233;SDS011;43467;50.890;5.982;2023-12-20T11:13:58;16.65;;;4.57;;
36233;SDS011;43467;50.890;5.982;2023-12-20T11:16:27;16.27;;;5.07;;
36233;SDS011;43467;50.890;5.982;2023-12-20T11:18:52;18.55;;;4.35;;
36233;SDS011;43467;50.890;5.982;2023-12-20T11:21:18;21.55;;;5.15;;
36233;SDS011;43467;50.890;5.982;2023-12-20T11:23:43;19.80;;;4.30;;
36233;SDS011;43467;50.890;5.982;2023-12-20T11:26:09;15.07;;;4.32;;
36233;SDS011;43467;50.890;5.982;2023-12-20T11:28:34;14.98;;;4.63;;
36233;SDS011;43467;50.890;5.982;2023-12-20T11:31:02;17.65;;;4.35;;
36233;SDS011;43467;50.890;5.982;2023-12-20T11:33:35;14.23;;;5.05;;
36233;SDS011;43467;50.890;5.982;2023-12-20T11:36:02;14.85;;;4.63;;
36233;SDS011;43467;50.890;5.982;2023-12-20T11:38:35;19.15;;;4.68;;
36233;SDS011;43467;50.890;5.982;2023-12-20T11:41:05;15.38;;;4.80;;
36233;SDS011;43467;50.890;5.982;2023-12-20T11:43:37;19.33;;;4.28;;
36233;SDS011;43467;50.890;5.982;2023-12-20T11:46:04;20.80;;;4.65;;
36233;SDS011;43467;50.890;5.982;2023-12-20T11:48:31;20.55;;;4.95;;
36233;SDS011;43467;50.890;5.982;2023-12-20T11:50:57;18.45;;;4.60;;
36233;SDS011;43467;50.890;5.982;2023-12-20T11:53:23;21.30;;;7.55;;
36233;SDS011;43467;50.890;5.982;2023-12-20T11:55:49;18.23;;;4.63;;
36233;SDS011;43467;50.890;5.982;2023-12-20T11:58:14;17.75;;;4.97;;
36233;SDS011;43467;50.890;5.982;2023-12-20T12:00:41;21.02;;;5.15;;
36233;SDS011;43467;50.890;5.982;2023-12-20T12:03:07;18.33;;;5.25;;
36233;SDS011;43467;50.890;5.982;2023-12-20T12:05:33;19.10;;;5.63;;
36233;SDS011;43467;50.890;5.982;2023-12-20T12:07:58;16.55;;;5.40;;
36233;SDS011;43467;50.890;5.982;2023-12-20T12:10:24;21.95;;;5.30;;
36233;SDS011;43467;50.890;5.982;2023-12-20T12:12:49;18.17;;;4.32;;
36233;SDS011;43467;50.890;5.982;2023-12-20T12:15:15;24.55;;;5.35;;
36233;SDS011;43467;50.890;5.982;2023-12-20T12:17:40;20.02;;;4.57;;
36233;SDS011;43467;50.890;5.982;2023-12-20T12:20:06;14.88;;;4.80;;
36233;SDS011;43467;50.890;5.982;2023-12-20T12:22:33;18.58;;;4.72;;
36233;SDS011;43467;50.890;5.982;2023-12-20T12:24:59;13.05;;;4.63;;
36233;SDS011;43467;50.890;5.982;2023-12-20T12:27:34;16.20;;;4.40;;
36233;SDS011;43467;50.890;5.982;2023-12-20T12:30:00;11.65;;;4.28;;
36233;SDS011;43467;50.890;5.982;2023-12-20T12:32:28;18.73;;;4.78;;
36233;SDS011;43467;50.890;5.982;2023-12-20T12:34:53;13.25;;;3.92;;
36233;SDS011;43467;50.890;5.982;2023-12-20T12:37:18;18.15;;;4.70;;
36233;SDS011;43467;50.890;5.982;2023-12-20T12:39:46;18.55;;;4.85;;
36233;SDS011;43467;50.890;5.982;2023-12-20T12:42:12;18.92;;;4.80;;
36233;SDS011;43467;50.890;5.982;2023-12-20T12:44:37;22.83;;;5.55;;
36233;SDS011;43467;50.890;5.982;2023-12-20T12:47:03;16.00;;;4.82;;
36233;SDS011;43467;50.890;5.982;2023-12-20T12:49:28;17.80;;;4.97;;
36233;SDS011;43467;50.890;5.982;2023-12-20T12:51:54;17.75;;;4.82;;
36233;SDS011;43467;50.890;5.982;2023-12-20T12:54:23;20.58;;;5.13;;
36233;SDS011;43467;50.890;5.982;2023-12-20T12:56:49;15.35;;;4.50;;
36233;SDS011;43467;50.890;5.982;2023-12-20T12:59:15;18.60;;;4.50;;
36233;SDS011;43467;50.890;5.982;2023-12-20T13:01:41;19.90;;;4.47;;
36233;SDS011;43467;50.890;5.982;2023-12-20T13:04:07;14.55;;;3.90;;
36233;SDS011;43467;50.890;5.982;2023-12-20T13:06:38;21.00;;;4.90;;
36233;SDS011;43467;50.890;5.982;2023-12-20T13:09:05;13.10;;;4.40;;
36233;SDS011;43467;50.890;5.982;2023-12-20T13:11:31;19.23;;;5.65;;
36233;SDS011;43467;50.890;5.982;2023-12-20T13:13:57;19.90;;;4.32;;
36233;SDS011;43467;50.890;5.982;2023-12-20T13:16:23;15.95;;;4.13;;
36233;SDS011;43467;50.890;5.982;2023-12-20T13:18:49;11.98;;;4.38;;
36233;SDS011;43467;50.890;5.982;2023-12-20T13:21:15;18.40;;;4.68;;
36233;SDS011;43467;50.890;5.982;2023-12-20T13:23:41;19.10;;;4.55;;
36233;SDS011;43467;50.890;5.982;2023-12-20T13:26:07;18.95;;;4.80;;
36233;SDS011;43467;50.890;5.982;2023-12-20T13:28:33;17.02;;;4.38;;
36233;SDS011;43467;50.890;5.982;2023-12-20T13:30:58;20.58;;;5.15;;
36233;SDS011;43467;50.890;5.982;2023-12-20T13:33:24;13.85;;;4.45;;
36233;SDS011;43467;50.890;5.982;2023-12-20T13:35:50;17.10;;;5.05;;
36233;SDS011;43467;50.890;5.982;2023-12-20T13:38:16;13.93;;;4.32;;
36233;SDS011;43467;50.890;5.982;2023-12-20T13:40:41;20.45;;;4.85;;
36233;SDS011;43467;50.890;5.982;2023-12-20T13:43:07;16.85;;;5.80;;
36233;SDS011;43467;50.890;5.982;2023-12-20T13:45:33;14.32;;;3.97;;
36233;SDS011;43467;50.890;5.982;2023-12-20T13:47:58;10.30;;;3.95;;
36233;SDS011;43467;50.890;5.982;2023-12-20T13:50:24;16.88;;;4.82;;
36233;SDS011;43467;50.890;5.982;2023-12-20T13:52:51;17.27;;;4.30;;
36233;SDS011;43467;50.890;5.982;2023-12-20T13:55:16;16.60;;;4.60;;
36233;SDS011;43467;50.890;5.982;2023-12-20T13:57:42;14.10;;;4.97;;
36233;SDS011;43467;50.890;5.982;2023-12-20T14:00:08;12.95;;;4.07;;
36233;SDS011;43467;50.890;5.982;2023-12-20T14:02:40;24.38;;;5.00;;
36233;SDS011;43467;50.890;5.982;2023-12-20T14:05:08;14.23;;;4.25;;
36233;SDS011;43467;50.890;5.982;2023-12-20T14:07:34;11.32;;;3.78;;
36233;SDS011;43467;50.890;5.982;2023-12-20T14:10:00;17.75;;;4.63;;
36233;SDS011;43467;50.890;5.982;2023-12-20T14:12:27;15.70;;;3.97;;
36233;SDS011;43467;50.890;5.982;2023-12-20T14:14:53;18.92;;;5.15;;
36233;SDS011;43467;50.890;5.982;2023-12-20T14:17:21;19.27;;;5.45;;
36233;SDS011;43467;50.890;5.982;2023-12-20T14:19:48;20.83;;;5.05;;
36233;SDS011;43467;50.890;5.982;2023-12-20T14:22:17;15.55;;;4.38;;
36233;SDS011;43467;50.890;5.982;2023-12-20T14:24:43;18.92;;;6.20;;
36233;SDS011;43467;50.890;5.982;2023-12-20T14:27:10;14.68;;;5.50;;
36233;SDS011;43467;50.890;5.982;2023-12-20T14:29:36;18.73;;;6.30;;
36233;SDS011;43467;50.890;5.982;2023-12-20T14:32:02;14.25;;;5.22;;